Flugplatz Pattonville (EDTQ)

Hier findest Du alle Informationen zum Flugplatz Pattonville (EDTQ).

Informationen für Piloten zum Flugplatz Pattonville

Hier findest Du alle relevanten Informationen, die Du als Pilot benötigst, um Pattonville anzufliegen.

Flugplatz: Pattonville ICAO-Code: EDTQ
Frequenz Turm: 123,65 Mhz GAFOR Gebiet: 53
Frequenz Ground: 123,65 Mhz Mogas: nein
Platzrunde: N 0 ft Landegebühr: 5,95 €
Platzhöhe: Sunrise: 06:25 Uhr UTC
Pisten: 10/28 - 672 m x 20 m, ASPH Sunset: 15:49 Uhr UTC

Flugwetter am Flugplatz Pattonville

Die METAR Information stammen aus EDDS (19.39 km entfernt).

METAR Code:
2019/11/01 09:50
EDDS 010950Z 15005KT 110V190 9999 FEW011 10/07 Q1013 NOSIG

Temperatur: 3,9 °C Niederschlag: - Wind: 2,9 kt
Temperatur (min.): 1,7 °C Luftdruck: 1008 hPa Windrichtung: 170 °
Temperatur (max.): 6,1 °C Luftfeuchtigkeit: 86 % Bewölkung: 6/8

Flugschulen am Flugplatz Pattonville

Am Flugplatz Pattonville gibt es leider keine Flugschule.

Benachbarte Flugplätze und Flugschulen

Es gibt 24 weitere Flugplätze in einem Umkreis von 50 km um den Flugplatz Pattonville.

Jetzt anmelden

Passwort vergessen

Anzeige: Skymap
Umfrage Archiv

Lasst Ihr Euch bei Überlandflügen von FIS begleiten?

Ja, immer!
50 %
Ja, unregelmäßig!
33.3 %
Ja, aber nur selten!
16.7 %
Nein, nie!
0 %
Stimmen: 6 | Diskussion
Anzeige: Roland Aircraft
Statistik Alle Mitglieder

Aktuell sind 23 Besucher online.

Anzeige: VFR Sprechfunk Simulator


Anzeige: Pocket FMS